Time,TemperatureF,DewpointF,PressureIn,WindDirection,WindDirectionDegrees,WindSpeedMPH,WindSpeedGustMPH,Humidity,HourlyPrecipIn,Conditions,Clouds,dailyrainin,SoftwareType,DateUTC
2013-02-24 00:00:00,39.7,31.1,29.92,East,96,2.0,5.0,71,0.00,,,0.00,Wunderground v.1.15,2013-02-24 06:00:00,
2013-02-24 00:10:00,39.6,31.0,29.92,East,97,3.0,3.0,71,0.00,,,0.00,Wunderground v.1.15,2013-02-24 06:10:00,
2013-02-24 00:15:00,39.5,30.9,29.92,East,97,1.0,3.0,71,0.00,,,0.00,Wunderground v.1.15,2013-02-24 06:15:00,
2013-02-24 00:20:00,39.4,30.8,29.92,East,97,0.0,0.0,71,0.00,,,0.00,Wunderground v.1.15,2013-02-24 06:20:00,
2013-02-24 00:25:00,39.2,30.6,29.92,East,97,0.0,0.0,71,0.00,,,0.00,Wunderground v.1.15,2013-02-24 06:25:00,
2013-02-24 00:35:00,38.8,30.5,29.92,East,97,0.0,0.0,72,0.00,,,0.00,Wunderground v.1.15,2013-02-24 06:35:00,
2013-02-24 00:40:00,38.6,30.7,29.92,East,97,0.0,0.0,73,0.00,,,0.00,Wunderground v.1.15,2013-02-24 06:40:00,
2013-02-24 00:45:00,38.3,30.4,29.92,East,98,1.0,4.0,73,0.00,,,0.00,Wunderground v.1.15,2013-02-24 06:45:00,
2013-02-24 00:50:00,38.0,30.4,29.92,East,98,3.0,4.0,74,0.00,,,0.00,Wunderground v.1.15,2013-02-24 06:50:00,
2013-02-24 01:00:00,37.7,30.2,29.91,East,100,5.0,5.0,74,0.00,,,0.00,Wunderground v.1.15,2013-02-24 07:00:00,
2013-02-24 01:10:00,37.9,30.4,29.91,East,101,4.0,5.0,74,0.00,,,0.00,Wunderground v.1.15,2013-02-24 07:10:00,
2013-02-24 01:20:00,38.1,30.5,29.91,ESE,102,5.0,5.0,74,0.00,,,0.00,Wunderground v.1.15,2013-02-24 07:20:00,
2013-02-24 01:25:00,38.3,30.7,29.91,ESE,103,5.0,5.0,74,0.00,,,0.00,Wunderground v.1.15,2013-02-24 07:25:00,
2013-02-24 01:30:00,38.4,30.8,29.91,ESE,103,5.0,5.0,74,0.00,,,0.00,Wunderground v.1.15,2013-02-24 07:30:00,
2013-02-24 01:40:00,38.4,30.5,29.91,ESE,103,4.0,4.0,73,0.00,,,0.00,Wunderground v.1.15,2013-02-24 07:40:00,
2013-02-24 01:45:00,38.4,30.5,29.91,ESE,103,3.0,4.0,73,0.00,,,0.00,Wunderground v.1.15,2013-02-24 07:45:00,
2013-02-24 01:50:00,38.3,30.4,29.91,ESE,103,3.0,4.0,73,0.00,,,0.00,Wunderground v.1.15,2013-02-24 07:50:00,
2013-02-24 01:55:00,38.2,30.6,29.91,ESE,103,4.0,4.0,74,0.00,,,0.00,Wunderground v.1.15,2013-02-24 07:55:00,
2013-02-24 02:00:00,38.0,30.4,29.92,ESE,103,4.0,4.0,74,0.00,,,0.00,Wunderground v.1.15,2013-02-24 08:00:00,
2013-02-24 02:10:00,37.6,30.1,29.92,ESE,103,4.0,4.0,74,0.00,,,0.00,Wunderground v.1.15,2013-02-24 08:10:00,
2013-02-24 02:15:00,37.5,30.3,29.93,ESE,109,3.0,5.0,75,0.00,,,0.00,Wunderground v.1.15,2013-02-24 08:15:00,
2013-02-24 02:25:00,38.1,30.9,29.92,SE,144,5.0,5.0,75,0.00,,,0.00,Wunderground v.1.15,2013-02-24 08:25:00,
2013-02-24 02:30:00,38.5,30.9,29.92,SE,144,3.0,3.0,74,0.00,,,0.00,Wunderground v.1.15,2013-02-24 08:30:00,
2013-02-24 02:35:00,38.7,30.8,29.92,SE,144,1.0,3.0,73,0.00,,,0.00,Wunderground v.1.15,2013-02-24 08:35:00,
2013-02-24 02:40:00,38.8,30.5,29.92,SE,144,2.0,5.0,72,0.00,,,0.00,Wunderground v.1.15,2013-02-24 08:40:00,
2013-02-24 02:45:00,38.8,30.5,29.91,SE,146,5.0,5.0,72,0.00,,,0.00,Wunderground v.1.15,2013-02-24 08:45:00,
2013-02-24 02:55:00,38.8,30.5,29.91,SSE,156,6.0,6.0,72,0.00,,,0.00,Wunderground v.1.15,2013-02-24 08:55:00,
2013-02-24 03:00:00,38.8,30.5,29.91,SSE,156,6.0,6.0,72,0.00,,,0.00,Wunderground v.1.15,2013-02-24 09:00:00,
2013-02-24 03:10:00,39.0,30.7,29.90,SSE,153,5.0,5.0,72,0.00,,,0.00,Wunderground v.1.15,2013-02-24 09:10:00,
2013-02-24 03:15:00,38.9,30.6,29.90,SSE,153,5.0,5.0,72,0.00,,,0.00,Wunderground v.1.15,2013-02-24 09:15:00,
2013-02-24 03:20:00,38.7,30.4,29.91,SSE,153,4.0,4.0,72,0.00,,,0.00,Wunderground v.1.15,2013-02-24 09:20:00,
2013-02-24 03:25:00,38.6,30.7,29.91,SSE,153,3.0,4.0,73,0.00,,,0.00,Wunderground v.1.15,2013-02-24 09:25:00,
2013-02-24 03:35:00,38.2,30.3,29.90,SSE,153,2.0,4.0,73,0.00,,,0.00,Wunderground v.1.15,2013-02-24 09:35:00,
2013-02-24 03:40:00,37.9,30.4,29.90,SSE,153,3.0,3.0,74,0.00,,,0.00,Wunderground v.1.15,2013-02-24 09:40:00,
2013-02-24 03:45:00,37.6,30.1,29.90,SSE,153,3.0,3.0,74,0.00,,,0.00,Wunderground v.1.15,2013-02-24 09:45:00,
2013-02-24 03:50:00,37.3,30.1,29.90,SSE,153,2.0,2.0,75,0.00,,,0.00,Wunderground v.1.15,2013-02-24 09:50:00,
2013-02-24 03:55:00,37.0,29.8,29.89,SSE,153,2.0,2.0,75,0.00,,,0.00,Wunderground v.1.15,2013-02-24 09:55:00,
2013-02-24 04:00:00,36.8,29.9,29.90,SSE,153,2.0,4.0,76,0.00,,,0.00,Wunderground v.1.15,2013-02-24 10:00:00,
2013-02-24 04:10:00,36.3,29.8,29.90,SSE,153,1.0,1.0,77,0.00,,,0.00,Wunderground v.1.15,2013-02-24 10:10:00,
2013-02-24 04:15:00,36.0,29.5,29.90,SSE,153,0.0,1.0,77,0.00,,,0.00,Wunderground v.1.15,2013-02-24 10:15:00,
2013-02-24 04:25:00,35.5,29.3,29.89,SSE,153,0.0,0.0,78,0.00,,,0.00,Wunderground v.1.15,2013-02-24 10:25:00,
2013-02-24 04:30:00,35.2,29.0,29.89,SSE,153,0.0,0.0,78,0.00,,,0.00,Wunderground v.1.15,2013-02-24 10:30:00,
2013-02-24 04:35:00,34.9,28.7,29.90,SSE,153,0.0,0.0,78,0.00,,,0.00,Wunderground v.1.15,2013-02-24 10:35:00,
2013-02-24 04:40:00,34.6,29.1,29.89,SSE,153,0.0,0.0,80,0.00,,,0.00,Wunderground v.1.15,2013-02-24 10:40:00,
2013-02-24 04:50:00,34.5,29.3,29.89,SSE,153,0.0,0.0,81,0.00,,,0.00,Wunderground v.1.15,2013-02-24 10:50:00,
2013-02-24 04:55:00,34.4,29.5,29.89,SSE,153,0.0,0.0,82,0.00,,,0.00,Wunderground v.1.15,2013-02-24 10:55:00,
2013-02-24 05:00:00,34.3,29.4,29.89,SSE,153,0.0,0.0,82,0.00,,,0.00,Wunderground v.1.15,2013-02-24 11:00:00,
2013-02-24 05:10:00,34.1,29.2,29.90,SSE,153,0.0,0.0,82,0.00,,,0.00,Wunderground v.1.15,2013-02-24 11:10:00,
2013-02-24 05:15:00,34.1,29.2,29.90,SSE,153,0.0,0.0,82,0.00,,,0.00,Wunderground v.1.15,2013-02-24 11:15:00,
2013-02-24 05:20:00,34.1,29.2,29.90,SSE,153,0.0,0.0,82,0.00,,,0.00,Wunderground v.1.15,2013-02-24 11:20:00,
2013-02-24 05:25:00,34.1,29.5,29.90,SSE,153,0.0,0.0,83,0.00,,,0.00,Wunderground v.1.15,2013-02-24 11:25:00,
2013-02-24 05:35:00,34.1,29.5,29.90,SSE,153,0.0,0.0,83,0.00,,,0.00,Wunderground v.1.15,2013-02-24 11:35:00,
2013-02-24 05:40:00,34.0,29.4,29.90,SSE,153,0.0,0.0,83,0.00,,,0.00,Wunderground v.1.15,2013-02-24 11:40:00,
2013-02-24 05:45:00,33.9,29.3,29.90,SSE,153,0.0,0.0,83,0.00,,,0.00,Wunderground v.1.15,2013-02-24 11:45:00,
2013-02-24 05:50:00,33.8,29.2,29.90,SSE,153,0.0,0.0,83,0.00,,,0.00,Wunderground v.1.15,2013-02-24 11:50:00,
2013-02-24 06:00:00,33.6,29.3,29.90,SSE,153,4.0,5.0,84,0.00,,,0.00,Wunderground v.1.15,2013-02-24 12:00:00,
2013-02-24 06:10:00,34.3,30.3,29.90,SSE,148,6.0,7.0,85,0.00,,,0.00,Wunderground v.1.15,2013-02-24 12:10:00,
2013-02-24 06:20:00,35.0,30.9,29.90,SSE,150,6.0,6.0,85,0.00,,,0.00,Wunderground v.1.15,2013-02-24 12:20:00,
2013-02-24 06:25:00,35.4,31.3,29.91,SSE,149,5.0,6.0,85,0.00,,,0.00,Wunderground v.1.15,2013-02-24 12:25:00,
2013-02-24 06:30:00,35.7,31.3,29.90,SSE,149,5.0,5.0,84,0.00,,,0.00,Wunderground v.1.15,2013-02-24 12:30:00,
2013-02-24 06:35:00,36.0,31.3,29.90,SSE,148,4.0,5.0,83,0.00,,,0.00,Wunderground v.1.15,2013-02-24 12:35:00,
2013-02-24 06:45:00,36.1,31.4,29.90,SSE,148,4.0,5.0,83,0.00,,,0.00,Wunderground v.1.15,2013-02-24 12:45:00,
2013-02-24 06:50:00,36.0,31.3,29.90,SSE,148,5.0,6.0,83,0.00,,,0.00,Wunderground v.1.15,2013-02-24 12:50:00,
2013-02-24 06:55:00,36.0,31.3,29.90,SSE,148,5.0,6.0,83,0.00,,,0.00,Wunderground v.1.15,2013-02-24 12:55:00,
2013-02-24 07:00:00,36.1,31.4,29.90,SSE,148,5.0,5.0,83,0.00,,,0.00,Wunderground v.1.15,2013-02-24 13:00:00,
2013-02-24 07:10:00,36.2,31.5,29.90,SSE,148,5.0,5.0,83,0.00,,,0.00,Wunderground v.1.15,2013-02-24 13:10:00,
2013-02-24 07:15:00,36.2,31.5,29.90,SSE,148,5.0,5.0,83,0.00,,,0.00,Wunderground v.1.15,2013-02-24 13:15:00,
2013-02-24 07:20:00,36.2,31.5,29.90,SSE,148,5.0,5.0,83,0.00,,,0.00,Wunderground v.1.15,2013-02-24 13:20:00,
2013-02-24 07:30:00,36.5,31.8,29.90,SSE,148,5.0,5.0,83,0.00,,,0.00,Wunderground v.1.15,2013-02-24 13:30:00,
2013-02-24 07:35:00,36.7,32.0,29.91,SSE,148,5.0,5.0,83,0.00,,,0.00,Wunderground v.1.15,2013-02-24 13:35:00,
2013-02-24 07:40:00,36.9,32.2,29.91,SSE,148,4.0,4.0,83,0.00,,,0.00,Wunderground v.1.15,2013-02-24 13:40:00,
2013-02-24 07:50:00,37.5,33.1,29.91,SSE,149,4.0,5.0,84,0.00,,,0.00,Wunderground v.1.15,2013-02-24 13:50:00,
2013-02-24 07:55:00,38.1,33.7,29.91,SSE,148,5.0,5.0,84,0.00,,,0.00,Wunderground v.1.15,2013-02-24 13:55:00,
2013-02-24 08:00:00,38.6,34.2,29.91,SSE,148,4.0,4.0,84,0.00,,,0.00,Wunderground v.1.15,2013-02-24 14:00:00,
2013-02-24 08:10:00,41.2,35.8,29.91,SSE,147,5.0,5.0,81,0.00,,,0.00,Wunderground v.1.15,2013-02-24 14:10:00,
2013-02-24 08:15:00,42.4,36.3,29.91,SSE,150,4.0,6.0,79,0.00,,,0.00,Wunderground v.1.15,2013-02-24 14:15:00,
2013-02-24 08:20:00,43.6,37.2,29.92,SSE,148,5.0,6.0,78,0.00,,,0.00,Wunderground v.1.15,2013-02-24 14:20:00,
2013-02-24 08:30:00,45.6,38.1,29.92,SE,134,7.0,13.0,75,0.00,,,0.00,Wunderground v.1.15,2013-02-24 14:30:00,
2013-02-24 08:35:00,46.3,38.8,29.92,SE,127,7.0,13.0,75,0.00,,,0.00,Wunderground v.1.15,2013-02-24 14:35:00,
2013-02-24 08:40:00,47.1,39.6,29.92,SE,144,7.0,7.0,75,0.00,,,0.00,Wunderground v.1.15,2013-02-24 14:40:00,
2013-02-24 08:45:00,47.9,40.0,29.92,SE,142,8.0,8.0,74,0.00,,,0.00,Wunderground v.1.15,2013-02-24 14:45:00,
2013-02-24 08:55:00,49.7,41.4,29.92,SSE,149,8.0,9.0,73,0.00,,,0.00,Wunderground v.1.15,2013-02-24 14:55:00,
2013-02-24 09:00:00,50.4,41.7,29.92,SE,130,9.0,9.0,72,0.00,,,0.00,Wunderground v.1.15,2013-02-24 15:00:00,
2013-02-24 09:10:00,50.9,41.8,29.92,SSE,157,10.0,11.0,71,0.00,,,0.00,Wunderground v.1.15,2013-02-24 15:10:00,
2013-02-24 09:15:00,51.4,41.9,29.92,SE,132,11.0,18.0,70,0.00,,,0.00,Wunderground v.1.15,2013-02-24 15:15:00,
2013-02-24 09:20:00,51.9,42.4,29.92,ESE,118,11.0,11.0,70,0.00,,,0.00,Wunderground v.1.15,2013-02-24 15:20:00,
2013-02-24 09:25:00,52.7,43.2,29.92,SE,145,11.0,11.0,70,0.00,,,0.00,Wunderground v.1.15,2013-02-24 15:25:00,
2013-02-24 09:35:00,53.2,43.7,29.92,SE,132,13.0,13.0,70,0.00,,,0.00,Wunderground v.1.15,2013-02-24 15:35:00,
2013-02-24 09:40:00,54.1,44.2,29.91,SE,135,11.0,12.0,69,0.00,,,0.00,Wunderground v.1.15,2013-02-24 15:40:00,
2013-02-24 09:45:00,54.6,44.2,29.92,SE,128,11.0,12.0,68,0.00,,,0.00,Wunderground v.1.15,2013-02-24 15:45:00,
2013-02-24 09:50:00,54.8,44.8,29.91,SE,136,12.0,12.0,69,0.00,,,0.00,Wunderground v.1.15,2013-02-24 15:50:00,
2013-02-24 09:55:00,55.6,45.2,29.91,SE,145,11.0,12.0,68,0.00,,,0.00,Wunderground v.1.15,2013-02-24 15:55:00,
2013-02-24 10:00:00,56.6,45.0,29.91,SE,143,10.0,13.0,65,0.00,,,0.00,Wunderground v.1.15,2013-02-24 16:00:00,
2013-02-24 10:10:00,56.5,45.3,29.91,SE,135,14.0,14.0,66,0.00,,,0.00,Wunderground v.1.15,2013-02-24 16:10:00,
2013-02-24 10:20:00,58.0,46.3,29.90,SE,137,11.0,12.0,65,0.00,,,0.00,Wunderground v.1.15,2013-02-24 16:20:00,
2013-02-24 10:25:00,58.4,46.3,29.90,SE,144,10.0,12.0,64,0.00,,,0.00,Wunderground v.1.15,2013-02-24 16:25:00,
2013-02-24 10:30:00,59.0,46.8,29.90,SSE,150,11.0,11.0,64,0.00,,,0.00,Wunderground v.1.15,2013-02-24 16:30:00,
2013-02-24 10:35:00,59.4,46.4,29.89,ESE,110,11.0,12.0,62,0.00,,,0.00,Wunderground v.1.15,2013-02-24 16:35:00,
2013-02-24 10:40:00,59.8,46.7,29.89,ESE,108,11.0,13.0,62,0.00,,,0.00,Wunderground v.1.15,2013-02-24 16:40:00,
2013-02-24 10:50:00,60.3,46.8,29.89,SE,128,11.0,11.0,61,0.00,,,0.00,Wunderground v.1.15,2013-02-24 16:50:00,
2013-02-24 10:55:00,60.9,46.0,29.89,SSE,159,11.0,14.0,58,0.00,,,0.00,Wunderground v.1.15,2013-02-24 16:55:00,
2013-02-24 11:00:00,60.7,45.8,29.88,SSE,150,12.0,12.0,58,0.00,,,0.00,Wunderground v.1.15,2013-02-24 17:00:00,
2013-02-24 11:10:00,62.1,46.2,29.87,SE,126,10.0,12.0,56,0.00,,,0.00,Wunderground v.1.15,2013-02-24 17:10:00,
2013-02-24 11:15:00,62.0,46.1,29.88,ESE,119,11.0,15.0,56,0.00,,,0.00,Wunderground v.1.15,2013-02-24 17:15:00,
2013-02-24 11:20:00,62.3,46.4,29.88,SSE,151,11.0,11.0,56,0.00,,,0.00,Wunderground v.1.15,2013-02-24 17:20:00,
2013-02-24 11:30:00,63.4,46.5,29.87,SSE,153,10.0,10.0,54,0.00,,,0.00,Wunderground v.1.15,2013-02-24 17:30:00,
2013-02-24 11:35:00,64.4,46.4,29.87,SE,136,8.0,10.0,52,0.00,,,0.00,Wunderground v.1.15,2013-02-24 17:35:00,
2013-02-24 11:40:00,64.8,45.7,29.87,SSE,161,8.0,11.0,50,0.00,,,0.00,Wunderground v.1.15,2013-02-24 17:40:00,
2013-02-24 11:45:00,64.7,46.1,29.87,SSE,150,9.0,11.0,51,0.00,,,0.00,Wunderground v.1.15,2013-02-24 17:45:00,
2013-02-24 11:55:00,65.0,46.9,29.86,SE,124,9.0,13.0,52,0.00,,,0.00,Wunderground v.1.15,2013-02-24 17:55:00,
2013-02-24 12:00:00,65.3,44.5,29.86,SSE,159,9.0,9.0,47,0.00,,,0.00,Wunderground v.1.15,2013-02-24 18:00:00,
2013-02-24 12:10:00,65.2,43.3,29.85,South,182,11.0,11.0,45,0.00,,,0.00,Wunderground v.1.15,2013-02-24 18:10:00,
2013-02-24 12:20:00,66.1,44.7,29.85,SSE,153,10.0,10.0,46,0.00,,,0.00,Wunderground v.1.15,2013-02-24 18:20:00,
2013-02-24 12:25:00,66.7,45.3,29.85,SSE,163,9.0,14.0,46,0.00,,,0.00,Wunderground v.1.15,2013-02-24 18:25:00,
2013-02-24 12:30:00,66.5,44.5,29.84,SE,146,11.0,11.0,45,0.00,,,0.00,Wunderground v.1.15,2013-02-24 18:30:00,
2013-02-24 12:35:00,66.9,44.9,29.84,SSE,156,10.0,11.0,45,0.00,,,0.00,Wunderground v.1.15,2013-02-24 18:35:00,
2013-02-24 12:45:00,68.2,45.4,29.83,SSE,162,8.0,13.0,44,0.00,,,0.00,Wunderground v.1.15,2013-02-24 18:45:00,
2013-02-24 12:50:00,68.0,45.3,29.82,ESE,113,10.0,14.0,44,0.00,,,0.00,Wunderground v.1.15,2013-02-24 18:50:00,
2013-02-24 12:55:00,68.1,45.9,29.82,SSE,161,10.0,14.0,45,0.00,,,0.00,Wunderground v.1.15,2013-02-24 18:55:00,
2013-02-24 13:00:00,68.6,45.2,29.81,SSE,161,10.0,10.0,43,0.00,,,0.00,Wunderground v.1.15,2013-02-24 19:00:00,
2013-02-24 13:10:00,68.7,45.3,29.80,SE,138,10.0,13.0,43,0.00,,,0.00,Wunderground v.1.15,2013-02-24 19:10:00,
2013-02-24 13:15:00,69.2,45.1,29.79,ESE,115,10.0,13.0,42,0.00,,,0.00,Wunderground v.1.15,2013-02-24 19:15:00,
2013-02-24 13:25:00,69.3,43.9,29.78,SE,132,13.0,15.0,40,0.00,,,0.00,Wunderground v.1.15,2013-02-24 19:25:00,
2013-02-24 13:30:00,69.7,45.6,29.77,SSE,148,11.0,11.0,42,0.00,,,0.00,Wunderground v.1.15,2013-02-24 19:30:00,
2013-02-24 13:35:00,70.1,43.3,29.77,ESE,114,10.0,11.0,38,0.00,,,0.00,Wunderground v.1.15,2013-02-24 19:35:00,
2013-02-24 13:40:00,69.4,43.4,29.76,ESE,119,13.0,16.0,39,0.00,,,0.00,Wunderground v.1.15,2013-02-24 19:40:00,
2013-02-24 13:50:00,70.2,44.1,29.76,East,99,12.0,12.0,39,0.00,,,0.00,Wunderground v.1.15,2013-02-24 19:50:00,
2013-02-24 13:55:00,70.0,44.6,29.76,ESE,121,13.0,13.0,40,0.00,,,0.00,Wunderground v.1.15,2013-02-24 19:55:00,
2013-02-24 14:00:00,70.3,44.8,29.75,East,100,13.0,13.0,40,0.00,,,0.00,Wunderground v.1.15,2013-02-24 20:00:00,
2013-02-24 14:10:00,70.8,43.9,29.75,SE,125,12.0,20.0,38,0.00,,,0.00,Wunderground v.1.15,2013-02-24 20:10:00,
2013-02-24 14:15:00,70.5,44.3,29.75,ESE,115,13.0,20.0,39,0.00,,,0.00,Wunderground v.1.15,2013-02-24 20:15:00,
2013-02-24 14:20:00,70.5,44.3,29.75,ESE,119,14.0,15.0,39,0.00,,,0.00,Wunderground v.1.15,2013-02-24 20:20:00,
2013-02-24 14:30:00,71.3,45.1,29.74,South,171,12.0,12.0,39,0.00,,,0.00,Wunderground v.1.15,2013-02-24 20:30:00,
2013-02-24 14:35:00,71.0,45.5,29.74,ESE,111,12.0,12.0,40,0.00,,,0.00,Wunderground v.1.15,2013-02-24 20:35:00,
2013-02-24 14:40:00,71.1,44.9,29.73,SE,136,12.0,12.0,39,0.00,,,0.00,Wunderground v.1.15,2013-02-24 20:40:00,
2013-02-24 14:45:00,71.5,45.9,29.73,ESE,122,10.0,12.0,40,0.00,,,0.00,Wunderground v.1.15,2013-02-24 20:45:00,
2013-02-24 14:50:00,71.3,45.7,29.73,SE,134,11.0,12.0,40,0.00,,,0.00,Wunderground v.1.15,2013-02-24 20:50:00,
2013-02-24 15:00:00,70.6,45.1,29.73,ESE,113,12.0,12.0,40,0.00,,,0.00,Wunderground v.1.15,2013-02-24 21:00:00,
2013-02-24 15:10:00,71.0,44.8,29.71,ESE,122,13.0,13.0,39,0.00,,,0.00,Wunderground v.1.15,2013-02-24 21:10:00,
2013-02-24 15:15:00,70.6,44.4,29.71,SE,127,14.0,19.0,39,0.00,,,0.00,Wunderground v.1.15,2013-02-24 21:15:00,
2013-02-24 15:20:00,70.3,44.2,29.71,SE,141,16.0,18.0,39,0.00,,,0.00,Wunderground v.1.15,2013-02-24 21:20:00,
2013-02-24 15:25:00,70.4,44.3,29.71,SE,146,15.0,18.0,39,0.00,,,0.00,Wunderground v.1.15,2013-02-24 21:25:00,
2013-02-24 15:30:00,70.4,44.3,29.71,SE,125,14.0,14.0,39,0.00,,,0.00,Wunderground v.1.15,2013-02-24 21:30:00,
2013-02-24 15:35:00,70.5,44.3,29.71,ESE,121,14.0,14.0,39,0.00,,,0.00,Wunderground v.1.15,2013-02-24 21:35:00,
2013-02-24 15:45:00,70.6,45.1,29.71,SSE,148,11.0,20.0,40,0.00,,,0.00,Wunderground v.1.15,2013-02-24 21:45:00,
2013-02-24 15:50:00,71.1,44.9,29.71,SSE,153,10.0,10.0,39,0.00,,,0.00,Wunderground v.1.15,2013-02-24 21:50:00,
2013-02-24 15:55:00,71.3,45.1,29.72,SE,130,10.0,10.0,39,0.00,,,0.00,Wunderground v.1.15,2013-02-24 21:55:00,
2013-02-24 16:00:00,70.6,44.4,29.71,SSE,148,12.0,12.0,39,0.00,,,0.00,Wunderground v.1.15,2013-02-24 22:00:00,
2013-02-24 16:10:00,70.1,44.6,29.70,SSE,148,11.0,15.0,40,0.00,,,0.00,Wunderground v.1.15,2013-02-24 22:10:00,
2013-02-24 16:15:00,70.3,43.5,29.70,SSE,153,12.0,15.0,38,0.00,,,0.00,Wunderground v.1.15,2013-02-24 22:15:00,
2013-02-24 16:25:00,70.7,45.2,29.70,SE,127,10.0,11.0,40,0.00,,,0.00,Wunderground v.1.15,2013-02-24 22:25:00,
2013-02-24 16:30:00,70.5,44.3,29.70,SSE,165,9.0,9.0,39,0.00,,,0.00,Wunderground v.1.15,2013-02-24 22:30:00,
2013-02-24 16:35:00,70.3,44.2,29.70,SE,133,10.0,10.0,39,0.00,,,0.00,Wunderground v.1.15,2013-02-24 22:35:00,
2013-02-24 16:40:00,69.8,43.7,29.69,South,172,11.0,14.0,39,0.00,,,0.00,Wunderground v.1.15,2013-02-24 22:40:00,
2013-02-24 16:45:00,69.5,44.1,29.69,SSE,153,12.0,14.0,40,0.00,,,0.00,Wunderground v.1.15,2013-02-24 22:45:00,
2013-02-24 16:55:00,69.1,43.1,29.69,SSE,150,13.0,13.0,39,0.00,,,0.00,Wunderground v.1.15,2013-02-24 22:55:00,
2013-02-24 17:00:00,69.2,42.5,29.69,SE,137,12.0,13.0,38,0.00,,,0.00,Wunderground v.1.15,2013-02-24 23:00:00,
2013-02-24 17:10:00,68.9,42.9,29.69,SSE,150,12.0,12.0,39,0.00,,,0.00,Wunderground v.1.15,2013-02-24 23:10:00,
2013-02-24 17:15:00,68.7,42.7,29.69,SE,144,12.0,12.0,39,0.00,,,0.00,Wunderground v.1.15,2013-02-24 23:15:00,
2013-02-24 17:20:00,68.4,43.1,29.69,SSE,150,11.0,11.0,40,0.00,,,0.00,Wunderground v.1.15,2013-02-24 23:20:00,
2013-02-24 17:25:00,68.1,42.9,29.69,SE,138,10.0,12.0,40,0.00,,,0.00,Wunderground v.1.15,2013-02-24 23:25:00,
2013-02-24 17:30:00,68.0,42.8,29.69,ESE,119,10.0,10.0,40,0.00,,,0.00,Wunderground v.1.15,2013-02-24 23:30:00,
2013-02-24 17:40:00,67.2,42.0,29.69,SE,142,11.0,11.0,40,0.00,,,0.00,Wunderground v.1.15,2013-02-24 23:40:00,
2013-02-24 17:45:00,66.8,41.7,29.69,ESE,115,12.0,15.0,40,0.00,,,0.00,Wunderground v.1.15,2013-02-24 23:45:00,
2013-02-24 17:50:00,66.5,41.4,29.69,East,90,11.0,11.0,40,0.00,,,0.00,Wunderground v.1.15,2013-02-24 23:50:00,
2013-02-24 17:55:00,66.2,41.2,29.69,SE,128,11.0,12.0,40,0.00,,,0.00,Wunderground v.1.15,2013-02-24 23:55:00,
2013-02-24 18:00:00,65.8,40.8,29.69,SE,130,11.0,11.0,40,0.00,,,0.00,Wunderground v.1.15,2013-02-25 00:00:00,
2013-02-24 18:10:00,65.0,40.7,29.69,ESE,119,10.0,11.0,41,0.00,,,0.00,Wunderground v.1.15,2013-02-25 00:10:00,
2013-02-24 18:15:00,64.7,41.1,29.69,ESE,116,11.0,11.0,42,0.00,,,0.00,Wunderground v.1.15,2013-02-25 00:15:00,
2013-02-24 18:20:00,64.4,40.8,29.69,SE,144,10.0,14.0,42,0.00,,,0.00,Wunderground v.1.15,2013-02-25 00:20:00,
2013-02-24 18:30:00,63.8,40.9,29.68,ESE,121,10.0,10.0,43,0.00,,,0.00,Wunderground v.1.15,2013-02-25 00:30:00,
2013-02-24 18:35:00,63.5,40.6,29.68,ESE,113,9.0,10.0,43,0.00,,,0.00,Wunderground v.1.15,2013-02-25 00:35:00,
2013-02-24 18:40:00,63.2,40.3,29.69,ESE,123,9.0,11.0,43,0.00,,,0.00,Wunderground v.1.15,2013-02-25 00:40:00,
2013-02-24 18:50:00,62.9,40.6,29.67,East,98,11.0,11.0,44,0.00,,,0.00,Wunderground v.1.15,2013-02-25 00:50:00,
2013-02-24 18:55:00,62.8,40.5,29.67,ESE,103,11.0,11.0,44,0.00,,,0.00,Wunderground v.1.15,2013-02-25 00:55:00,
2013-02-24 19:00:00,62.7,40.5,29.68,ESE,117,10.0,14.0,44,0.00,,,0.00,Wunderground v.1.15,2013-02-25 01:00:00,
2013-02-24 19:10:00,62.2,40.6,29.68,SSE,148,10.0,10.0,45,0.00,,,0.00,Wunderground v.1.15,2013-02-25 01:10:00,
2013-02-24 19:15:00,62.0,41.0,29.68,ESE,119,9.0,11.0,46,0.00,,,0.00,Wunderground v.1.15,2013-02-25 01:15:00,
2013-02-24 19:20:00,61.9,40.9,29.68,SE,144,10.0,10.0,46,0.00,,,0.00,Wunderground v.1.15,2013-02-25 01:20:00,
2013-02-24 19:25:00,61.8,40.8,29.68,ESE,111,9.0,13.0,46,0.00,,,0.00,Wunderground v.1.15,2013-02-25 01:25:00,
2013-02-24 19:30:00,61.6,40.6,29.68,SE,129,9.0,9.0,46,0.00,,,0.00,Wunderground v.1.15,2013-02-25 01:30:00,
2013-02-24 19:40:00,61.1,40.7,29.68,ESE,111,7.0,7.0,47,0.00,,,0.00,Wunderground v.1.15,2013-02-25 01:40:00,
2013-02-24 19:45:00,60.8,41.0,29.68,ESE,108,7.0,7.0,48,0.00,,,0.00,Wunderground v.1.15,2013-02-25 01:45:00,
2013-02-24 19:50:00,60.6,41.3,29.69,East,98,7.0,7.0,49,0.00,,,0.00,Wunderground v.1.15,2013-02-25 01:50:00,
2013-02-24 20:00:00,60.2,41.0,29.69,ESE,119,7.0,9.0,49,0.00,,,0.00,Wunderground v.1.15,2013-02-25 02:00:00,
2013-02-24 20:10:00,60.1,41.4,29.68,SE,134,8.0,13.0,50,0.00,,,0.00,Wunderground v.1.15,2013-02-25 02:10:00,
2013-02-24 20:20:00,60.0,41.3,29.68,SE,124,9.0,9.0,50,0.00,,,0.00,Wunderground v.1.15,2013-02-25 02:20:00,
2013-02-24 20:25:00,59.9,41.7,29.68,ESE,120,9.0,9.0,51,0.00,,,0.00,Wunderground v.1.15,2013-02-25 02:25:00,
2013-02-24 20:30:00,59.8,41.6,29.68,ESE,122,9.0,11.0,51,0.00,,,0.00,Wunderground v.1.15,2013-02-25 02:30:00,
2013-02-24 20:35:00,59.8,41.6,29.68,SE,130,9.0,11.0,51,0.00,,,0.00,Wunderground v.1.15,2013-02-25 02:35:00,
2013-02-24 20:40:00,59.8,41.6,29.68,SE,140,9.0,13.0,51,0.00,,,0.00,Wunderground v.1.15,2013-02-25 02:40:00,
2013-02-24 20:50:00,59.8,42.1,29.68,SE,128,9.0,14.0,52,0.00,,,0.00,Wunderground v.1.15,2013-02-25 02:50:00,
2013-02-24 20:55:00,59.8,42.1,29.68,ESE,120,8.0,14.0,52,0.00,,,0.00,Wunderground v.1.15,2013-02-25 02:55:00,
2013-02-24 21:00:00,59.7,42.0,29.68,SE,136,8.0,8.0,52,0.00,,,0.00,Wunderground v.1.15,2013-02-25 03:00:00,
2013-02-24 21:10:00,59.5,42.3,29.68,ESE,122,7.0,8.0,53,0.00,,,0.00,Wunderground v.1.15,2013-02-25 03:10:00,
2013-02-24 21:15:00,59.3,42.6,29.68,SE,128,7.0,8.0,54,0.00,,,0.00,Wunderground v.1.15,2013-02-25 03:15:00,
2013-02-24 21:20:00,59.1,42.5,29.67,ESE,121,8.0,14.0,54,0.00,,,0.00,Wunderground v.1.15,2013-02-25 03:20:00,
2013-02-24 21:30:00,59.0,42.4,29.67,ESE,121,8.0,8.0,54,0.00,,,0.00,Wunderground v.1.15,2013-02-25 03:30:00,
2013-02-24 21:35:00,58.7,42.6,29.68,SSE,148,7.0,9.0,55,0.00,,,0.00,Wunderground v.1.15,2013-02-25 03:35:00,
2013-02-24 21:40:00,58.6,42.5,29.67,ESE,123,8.0,8.0,55,0.00,,,0.00,Wunderground v.1.15,2013-02-25 03:40:00,
2013-02-24 21:45:00,58.4,42.3,29.67,ESE,105,9.0,11.0,55,0.00,,,0.00,Wunderground v.1.15,2013-02-25 03:45:00,
2013-02-24 21:55:00,58.1,42.5,29.67,SE,141,9.0,9.0,56,0.00,,,0.00,Wunderground v.1.15,2013-02-25 03:55:00,
2013-02-24 22:00:00,58.0,42.4,29.67,ESE,121,10.0,10.0,56,0.00,,,0.00,Wunderground v.1.15,2013-02-25 04:00:00,
2013-02-24 22:10:00,57.8,42.7,29.67,ESE,119,10.0,12.0,57,0.00,,,0.00,Wunderground v.1.15,2013-02-25 04:10:00,
2013-02-24 22:15:00,57.8,43.1,29.67,ESE,123,9.0,12.0,58,0.00,,,0.00,Wunderground v.1.15,2013-02-25 04:15:00,
2013-02-24 22:20:00,57.7,43.0,29.67,ESE,107,9.0,9.0,58,0.00,,,0.00,Wunderground v.1.15,2013-02-25 04:20:00,
2013-02-24 22:25:00,57.6,43.4,29.66,SE,140,9.0,14.0,59,0.00,,,0.00,Wunderground v.1.15,2013-02-25 04:25:00,
2013-02-24 22:30:00,57.5,43.7,29.66,SE,125,10.0,11.0,60,0.00,,,0.00,Wunderground v.1.15,2013-02-25 04:30:00,
2013-02-24 22:40:00,57.5,44.1,29.65,ESE,120,11.0,15.0,61,0.00,,,0.00,Wunderground v.1.15,2013-02-25 04:40:00,
2013-02-24 22:45:00,57.5,44.6,29.65,ESE,119,11.0,15.0,62,0.00,,,0.00,Wunderground v.1.15,2013-02-25 04:45:00,
2013-02-24 22:50:00,57.4,44.5,29.64,ESE,104,11.0,11.0,62,0.00,,,0.00,Wunderground v.1.15,2013-02-25 04:50:00,
2013-02-24 22:55:00,57.3,44.4,29.63,ESE,109,11.0,14.0,62,0.00,,,0.00,Wunderground v.1.15,2013-02-25 04:55:00,
2013-02-24 23:00:00,57.3,44.8,29.63,ESE,118,11.0,11.0,63,0.00,,,0.00,Wunderground v.1.15,2013-02-25 05:00:00,
2013-02-24 23:05:00,57.3,44.8,29.62,ESE,117,11.0,16.0,63,0.00,,,0.00,Wunderground v.1.15,2013-02-25 05:05:00,
2013-02-24 23:10:00,57.2,45.1,29.63,SE,143,11.0,18.0,64,0.00,,,0.00,Wunderground v.1.15,2013-02-25 05:10:00,
2013-02-24 23:15:00,57.2,45.1,29.62,SE,140,11.0,18.0,64,0.00,,,0.00,Wunderground v.1.15,2013-02-25 05:15:00,
2013-02-24 23:20:00,57.2,45.5,29.62,ESE,123,12.0,12.0,65,0.00,,,0.00,Wunderground v.1.15,2013-02-25 05:20:00,
2013-02-24 23:25:00,57.2,45.5,29.61,ESE,123,11.0,12.0,65,0.00,,,0.00,Wunderground v.1.15,2013-02-25 05:25:00,
2013-02-24 23:30:00,57.3,45.6,29.60,ESE,114,11.0,20.0,65,0.00,,,0.00,Wunderground v.1.15,2013-02-25 05:30:00,
2013-02-24 23:35:00,57.5,45.8,29.59,SE,142,13.0,20.0,65,0.00,,,0.00,Wunderground v.1.15,2013-02-25 05:35:00,
2013-02-24 23:40:00,57.6,45.9,29.59,SE,141,14.0,15.0,65,0.00,,,0.00,Wunderground v.1.15,2013-02-25 05:40:00,
2013-02-24 23:50:00,57.5,46.2,29.60,SE,144,12.0,12.0,66,0.00,,,0.00,Wunderground v.1.15,2013-02-25 05:50:00,
2013-02-24 23:55:00,57.5,46.2,29.60,SE,138,12.0,12.0,66,0.00,,,0.00,Wunderground v.1.15,2013-02-25 05:55:00,